Time;durP1;ratioP1;P1;durP2;ratioP2;P2;SDS_P1;SDS_P2;PMS_P1;PMS_P2;Temp;Humidity;BMP_temperature;BMP_pressure;BME280_temperature;BME280_humidity;BME280_pressure;Samples;Min_cycle;Max_cycle;Signal;HPM_P1;HPM_P2
2022/08/25 00:01:18;;;;;;;19.67;16.17;;;18.90;99.90;;;;;;6219042;23;20016;-80
2022/08/25 00:03:44;;;;;;;18.05;16.30;;;18.90;99.90;;;;;;6220056;23;20016;-80
2022/08/25 00:06:10;;;;;;;18.73;14.75;;;18.90;99.90;;;;;;6219965;23;20054;-81
2022/08/25 00:08:37;;;;;;;15.75;14.15;;;18.90;99.90;;;;;;6246541;23;20077;-81
2022/08/25 00:11:13;;;;;;;21.67;16.88;;;18.90;99.90;;;;;;6247500;23;20023;-81
2022/08/25 00:13:44;;;;;;;18.63;16.75;;;18.80;99.90;;;;;;6247168;23;20521;-81
2022/08/25 00:16:11;;;;;;;20.40;17.15;;;18.80;99.90;;;;;;6246531;23;20016;-80
2022/08/25 00:18:44;;;;;;;18.73;16.77;;;18.70;99.90;;;;;;6247113;23;20073;-81
2022/08/25 00:21:11;;;;;;;19.30;17.25;;;18.70;99.90;;;;;;6220187;23;20012;-81
2022/08/25 00:23:38;;;;;;;21.52;19.17;;;18.70;99.90;;;;;;6246026;23;20016;-81
2022/08/25 00:26:05;;;;;;;23.77;18.20;;;18.70;99.90;;;;;;6220483;23;20051;-80
2022/08/25 00:28:30;;;;;;;21.73;18.63;;;18.70;99.90;;;;;;6220086;23;20056;-81
2022/08/25 00:31:00;;;;;;;22.23;18.60;;;18.70;99.90;;;;;;6246769;23;20475;-81
2022/08/25 00:33:27;;;;;;;24.33;18.42;;;18.70;99.90;;;;;;6220164;23;20016;-80
2022/08/25 00:35:53;;;;;;;20.50;16.55;;;18.80;99.90;;;;;;6219567;23;20022;-80
2022/08/25 00:38:19;;;;;;;19.65;16.02;;;18.80;99.90;;;;;;6218733;23;20478;-80
2022/08/25 00:41:04;;;;;;;19.83;15.68;;;18.90;99.90;;;;;;6195451;23;20051;-81
2022/08/25 00:43:55;;;;;;;18.20;14.57;;;18.90;99.90;;;;;;6246412;23;20022;-80
2022/08/25 00:46:32;;;;;;;18.42;16.58;;;18.90;99.90;;;;;;6220368;23;20013;-81
2022/08/25 00:49:05;;;;;;;17.25;15.43;;;18.90;99.90;;;;;;6246782;23;20479;-80
2022/08/25 00:51:41;;;;;;;19.55;17.65;;;18.90;99.90;;;;;;6193815;23;20012;-81
2022/08/25 00:54:13;;;;;;;20.83;16.65;;;19.00;99.90;;;;;;6219906;23;20020;-80
2022/08/25 00:56:39;;;;;;;18.17;14.85;;;19.00;99.90;;;;;;6220227;23;20016;-80
2022/08/25 00:59:05;;;;;;;17.77;15.90;;;19.00;99.90;;;;;;6218897;23;20063;-80
2022/08/25 01:01:31;;;;;;;17.65;15.82;;;19.00;99.90;;;;;;6220200;23;20023;-80
2022/08/25 01:03:57;;;;;;;20.85;15.13;;;19.00;99.90;;;;;;6194373;23;20017;-80
2022/08/25 01:06:23;;;;;;;19.20;14.55;;;19.10;99.90;;;;;;6194088;23;20073;-80
2022/08/25 01:08:50;;;;;;;16.58;14.85;;;19.00;99.90;;;;;;6219835;23;20035;-80
2022/08/25 01:11:16;;;;;;;22.65;14.73;;;19.00;99.90;;;;;;6218909;23;20333;-80
2022/08/25 01:13:47;;;;;;;18.58;13.52;;;18.90;99.90;;;;;;6219733;23;20016;-80
2022/08/25 01:16:14;;;;;;;19.08;13.73;;;18.90;99.90;;;;;;6220244;23;20391;-81
2022/08/25 01:18:52;;;;;;;15.00;13.48;;;18.90;99.90;;;;;;6218686;23;20333;-81
2022/08/25 01:21:20;;;;;;;14.48;12.93;;;18.90;99.90;;;;;;6219251;23;20024;-80
2022/08/25 01:23:46;;;;;;;14.88;12.13;;;18.80;99.90;;;;;;6218867;23;20019;-80
2022/08/25 01:26:15;;;;;;;16.90;12.10;;;18.80;99.90;;;;;;6246110;23;20059;-81
2022/08/25 01:29:19;;;;;;;15.57;12.90;;;18.80;99.90;;;;;;6219561;23;20086;-80
2022/08/25 01:31:29;;;;;;;14.82;13.40;;;18.80;99.90;;;;;;6246685;23;20031;-80
2022/08/25 01:33:56;;;;;;;16.88;12.60;;;18.80;99.90;;;;;;6245735;23;20027;-80
2022/08/25 01:36:23;;;;;;;13.23;12.00;;;18.70;99.90;;;;;;6217990;23;20452;-80
2022/08/25 01:38:49;;;;;;;19.33;12.65;;;18.70;99.90;;;;;;6219848;23;20055;-80
2022/08/25 01:41:20;;;;;;;13.00;11.70;;;18.70;99.90;;;;;;6218979;23;20340;-80
2022/08/25 01:43:46;;;;;;;13.10;11.50;;;18.60;99.90;;;;;;6219462;23;20016;-80
2022/08/25 01:46:13;;;;;;;10.90;9.90;;;18.60;99.90;;;;;;6219760;23;20123;-80
2022/08/25 01:48:38;;;;;;;12.38;11.18;;;18.50;99.90;;;;;;6245276;23;20028;-80
2022/08/25 01:51:04;;;;;;;13.05;11.25;;;18.50;99.90;;;;;;6246143;23;20031;-80
2022/08/25 01:53:31;;;;;;;14.30;11.07;;;18.50;99.90;;;;;;6217906;23;20015;-80
2022/08/25 01:56:04;;;;;;;11.45;9.55;;;18.50;99.90;;;;;;6246961;23;20086;-80
2022/08/25 01:58:34;;;;;;;15.00;9.82;;;18.50;99.90;;;;;;6246006;23;20152;-80
2022/08/25 02:01:02;;;;;;;12.85;10.15;;;18.40;99.90;;;;;;6218769;23;20099;-80
2022/08/25 02:03:28;;;;;;;9.32;8.32;;;18.40;99.90;;;;;;6219219;23;20432;-80
2022/08/25 02:05:56;;;;;;;8.88;7.88;;;18.40;99.90;;;;;;6219462;23;20042;-80
2022/08/25 02:08:22;;;;;;;9.02;8.13;;;18.40;99.90;;;;;;6244022;23;20336;-80
2022/08/25 02:10:50;;;;;;;9.57;7.80;;;18.30;99.90;;;;;;6246356;23;20012;-80
2022/08/25 02:13:16;;;;;;;8.57;6.75;;;18.30;99.90;;;;;;6245107;23;20448;-80
2022/08/25 02:15:45;;;;;;;9.27;7.18;;;18.30;99.90;;;;;;6217772;23;20008;-80
2022/08/25 02:18:11;;;;;;;10.32;6.75;;;18.20;99.90;;;;;;6246289;23;20510;-80
2022/08/25 02:20:37;;;;;;;9.88;6.38;;;18.20;99.90;;;;;;6219116;23;20069;-81
2022/08/25 02:23:04;;;;;;;10.88;6.53;;;18.20;99.90;;;;;;6245061;23;20023;-81
2022/08/25 02:25:31;;;;;;;12.18;6.72;;;18.20;99.90;;;;;;6218026;23;20027;-80
2022/08/25 02:27:57;;;;;;;9.00;5.90;;;18.20;99.90;;;;;;6246319;23;20016;-80
2022/08/25 02:30:23;;;;;;;8.43;5.30;;;18.20;99.90;;;;;;6218294;23;20524;-81
2022/08/25 02:32:49;;;;;;;7.43;5.53;;;18.20;99.90;;;;;;6219406;23;20024;-80
2022/08/25 02:35:16;;;;;;;6.45;5.15;;;18.20;99.90;;;;;;6194533;23;20016;-80
2022/08/25 02:37:41;;;;;;;10.85;4.78;;;18.10;99.90;;;;;;6244856;23;20019;-81
2022/08/25 02:40:08;;;;;;;10.60;4.85;;;18.10;99.90;;;;;;6219435;23;20016;-80
2022/08/25 02:42:33;;;;;;;7.07;5.63;;;18.20;99.90;;;;;;6192671;23;20020;-80
2022/08/25 02:44:59;;;;;;;7.13;4.78;;;18.20;99.90;;;;;;6218209;23;20022;-80
2022/08/25 02:47:25;;;;;;;6.75;4.82;;;18.10;99.90;;;;;;6245578;23;20481;-80
2022/08/25 02:49:51;;;;;;;5.55;4.53;;;18.10;99.90;;;;;;6218900;23;20008;-81
2022/08/25 02:52:17;;;;;;;7.07;5.32;;;18.10;99.90;;;;;;6218969;23;20092;-80
2022/08/25 02:54:43;;;;;;;5.35;4.38;;;18.10;99.90;;;;;;6219266;23;20052;-79
2022/08/25 02:57:10;;;;;;;7.72;4.28;;;18.10;99.90;;;;;;6218334;23;20432;-80
2022/08/25 02:59:36;;;;;;;7.20;4.82;;;18.10;99.90;;;;;;6245410;23;20009;-80
2022/08/25 03:02:02;;;;;;;7.30;4.43;;;18.00;99.90;;;;;;6219706;23;20023;-80
2022/08/25 03:04:29;;;;;;;6.43;4.95;;;18.00;99.90;;;;;;6195318;23;20016;-80
2022/08/25 03:06:55;;;;;;;6.80;4.50;;;18.00;99.90;;;;;;6220738;23;20051;-80
2022/08/25 03:09:21;;;;;;;8.43;4.45;;;18.00;99.90;;;;;;6248083;23;20027;-80
2022/08/25 03:11:47;;;;;;;11.00;4.72;;;17.90;99.90;;;;;;6246835;23;20574;-80
2022/08/25 03:14:14;;;;;;;8.95;4.43;;;17.90;99.90;;;;;;6220481;23;20016;-79
2022/08/25 03:16:42;;;;;;;6.80;3.85;;;17.90;99.90;;;;;;6195503;23;20016;-80
2022/08/25 03:19:09;;;;;;;7.53;4.30;;;17.90;99.90;;;;;;6218676;23;20458;-80
2022/08/25 03:21:37;;;;;;;5.57;4.20;;;17.90;99.90;;;;;;6196101;23;20016;-80
2022/08/25 03:24:04;;;;;;;6.78;4.10;;;17.90;99.90;;;;;;6247401;23;20020;-80
2022/08/25 03:29:14;;;;;;;7.82;3.65;;;17.80;99.90;;;;;;6220698;23;20452;-80
2022/08/25 03:31:43;;;;;;;8.25;4.10;;;17.80;99.90;;;;;;6221123;23;20047;-80
2022/08/25 03:34:15;;;;;;;8.07;4.00;;;17.80;99.90;;;;;;6246608;23;20016;-80
2022/08/25 03:36:41;;;;;;;5.07;3.30;;;17.80;99.90;;;;;;6220113;23;20020;-80
2022/08/25 03:39:07;;;;;;;7.07;3.30;;;17.70;99.90;;;;;;6246870;23;20499;-80
2022/08/25 03:41:33;;;;;;;9.07;3.42;;;17.70;99.90;;;;;;6219450;23;20101;-80
2022/08/25 03:44:02;;;;;;;7.30;3.38;;;17.70;99.90;;;;;;6221075;23;20110;-80
2022/08/25 03:46:35;;;;;;;4.78;3.40;;;17.70;99.90;;;;;;6193600;23;20012;-80
2022/08/25 03:49:03;;;;;;;8.07;3.60;;;17.70;99.90;;;;;;6240388;23;20050;-80
2022/08/25 03:51:33;;;;;;;4.85;3.28;;;17.70;99.90;;;;;;6219618;23;20274;-80
2022/08/25 03:54:00;;;;;;;8.75;3.72;;;17.70;99.90;;;;;;6218639;23;20114;-80
2022/08/25 03:56:26;;;;;;;6.75;3.53;;;17.70;99.90;;;;;;6246358;23;20096;-80
2022/08/25 03:58:53;;;;;;;8.27;3.22;;;17.60;99.90;;;;;;6247663;23;20437;-80
2022/08/25 04:01:19;;;;;;;4.43;3.10;;;17.60;99.90;;;;;;6219499;23;20066;-80
2022/08/25 04:03:46;;;;;;;9.18;3.67;;;17.60;99.90;;;;;;6220246;23;20012;-80
2022/08/25 04:06:14;;;;;;;5.65;3.58;;;17.60;99.90;;;;;;6194895;23;20529;-80
2022/08/25 04:08:39;;;;;;;4.20;3.03;;;17.60;99.90;;;;;;6219222;23;20039;-80
2022/08/25 04:11:14;;;;;;;7.05;3.22;;;17.60;99.90;;;;;;6245990;23;20012;-80
2022/08/25 04:13:44;;;;;;;7.85;3.60;;;17.60;99.90;;;;;;6247410;23;20078;-80
2022/08/25 04:16:12;;;;;;;5.28;3.28;;;17.60;99.90;;;;;;6218610;23;20090;-80
2022/08/25 04:18:39;;;;;;;5.00;3.67;;;17.50;99.90;;;;;;6220209;23;20016;-80
2022/08/25 04:21:08;;;;;;;5.75;3.30;;;17.50;99.90;;;;;;6245387;23;20255;-80
2022/08/25 04:23:35;;;;;;;8.93;3.90;;;17.50;99.90;;;;;;6220207;23;20346;-81
2022/08/25 04:26:01;;;;;;;12.15;5.00;;;17.50;99.90;;;;;;6220198;23;20016;-80
2022/08/25 04:28:28;;;;;;;8.57;3.72;;;17.50;99.90;;;;;;6219465;23;20026;-80
2022/08/25 04:30:54;;;;;;;6.45;4.35;;;17.50;99.90;;;;;;6220130;23;20018;-81
2022/08/25 04:33:20;;;;;;;7.18;3.72;;;17.50;99.90;;;;;;6247275;23;20016;-80
2022/08/25 04:35:49;;;;;;;9.20;3.88;;;17.40;99.90;;;;;;6219150;23;20016;-80
2022/08/25 04:38:15;;;;;;;14.25;4.22;;;17.40;99.90;;;;;;6218653;23;20617;-80
2022/08/25 04:40:41;;;;;;;6.38;3.90;;;17.40;99.90;;;;;;6218989;23;20348;-80
2022/08/25 04:43:07;;;;;;;6.82;3.58;;;17.40;99.90;;;;;;6218639;23;20017;-81
2022/08/25 04:45:38;;;;;;;6.40;3.97;;;17.40;99.90;;;;;;6219499;23;20027;-80
2022/08/25 04:48:04;;;;;;;5.65;3.88;;;17.40;99.90;;;;;;6220715;23;20066;-81
2022/08/25 04:50:30;;;;;;;4.85;3.10;;;17.40;99.90;;;;;;6194202;23;20449;-81
2022/08/25 04:52:56;;;;;;;9.43;3.47;;;17.40;99.90;;;;;;6245699;23;20099;-81
2022/08/25 04:55:23;;;;;;;7.80;3.83;;;17.30;99.90;;;;;;6247120;23;20016;-81
2022/08/25 04:57:49;;;;;;;6.85;4.07;;;17.40;99.90;;;;;;6219297;23;20439;-81
2022/08/25 05:00:15;;;;;;;8.95;4.22;;;17.40;99.90;;;;;;6246518;23;20017;-80
2022/08/25 05:02:41;;;;;;;8.95;3.80;;;17.40;99.90;;;;;;6247426;23;20016;-80
2022/08/25 05:05:07;;;;;;;4.97;3.50;;;17.40;99.90;;;;;;6219214;23;20014;-81
2022/08/25 05:07:32;;;;;;;5.55;3.47;;;17.40;99.90;;;;;;6245940;23;20012;-81
2022/08/25 05:09:58;;;;;;;4.97;3.22;;;17.40;99.90;;;;;;6195050;23;20020;-81
2022/08/25 05:12:24;;;;;;;7.70;3.33;;;17.40;99.90;;;;;;6219660;23;20024;-81
2022/08/25 05:14:52;;;;;;;10.50;3.60;;;17.40;99.90;;;;;;6220069;23;20325;-81
2022/08/25 05:17:18;;;;;;;5.13;3.60;;;17.40;99.90;;;;;;6194961;23;20095;-81
2022/08/25 05:19:44;;;;;;;6.82;3.53;;;17.40;99.90;;;;;;6219710;23;20054;-81
2022/08/25 05:22:09;;;;;;;6.80;3.08;;;17.40;99.90;;;;;;6219546;23;20062;-81
2022/08/25 05:24:35;;;;;;;10.15;4.28;;;17.40;99.90;;;;;;6244026;22;20091;-81
2022/08/25 05:27:02;;;;;;;7.82;3.88;;;17.40;99.90;;;;;;6219632;23;20020;-81
2022/08/25 05:29:28;;;;;;;8.05;4.53;;;17.40;99.90;;;;;;6220103;23;20020;-81
2022/08/25 05:31:54;;;;;;;10.30;4.20;;;17.50;99.90;;;;;;6219314;23;20016;-81
2022/08/25 05:34:20;;;;;;;4.97;3.97;;;17.60;99.90;;;;;;6220342;23;20393;-80
2022/08/25 05:36:47;;;;;;;7.80;3.50;;;17.60;99.90;;;;;;6193862;23;20444;-81
2022/08/25 05:39:13;;;;;;;9.13;4.80;;;17.70;99.90;;;;;;6246073;23;20047;-80
2022/08/25 05:41:39;;;;;;;5.10;3.55;;;17.80;99.90;;;;;;6219956;23;20339;-80
2022/08/25 05:44:05;;;;;;;4.90;3.28;;;17.90;99.90;;;;;;6219439;23;20097;-81
2022/08/25 05:46:31;;;;;;;7.15;3.53;;;17.90;99.90;;;;;;6218341;23;20013;-81
2022/08/25 05:48:57;;;;;;;13.02;3.60;;;18.00;99.90;;;;;;6246526;23;20098;-81
2022/08/25 05:51:23;;;;;;;7.63;4.00;;;18.10;99.90;;;;;;6219054;23;20055;-79
2022/08/25 05:53:49;;;;;;;8.05;3.50;;;18.20;99.90;;;;;;6218301;23;20062;-80
2022/08/25 05:56:16;;;;;;;7.32;3.92;;;18.30;99.90;;;;;;6219591;23;20449;-81
2022/08/25 05:58:42;;;;;;;9.30;4.22;;;18.40;99.90;;;;;;6219235;23;20070;-81
2022/08/25 06:03:53;;;;;;;5.05;3.58;;;18.60;99.90;;;;;;6245860;23;20077;-80
2022/08/25 06:06:21;;;;;;;6.40;3.20;;;18.70;99.90;;;;;;6245956;23;20103;-80
2022/08/25 06:08:47;;;;;;;6.47;3.17;;;18.90;99.90;;;;;;6245001;23;20452;-80
2022/08/25 06:11:14;;;;;;;10.18;3.25;;;19.00;99.90;;;;;;6246418;23;20016;-81
2022/08/25 06:13:40;;;;;;;8.75;3.67;;;19.10;99.90;;;;;;6218554;23;20020;-81
2022/08/25 06:16:06;;;;;;;7.38;3.97;;;19.20;99.90;;;;;;6219069;23;20092;-80
2022/08/25 06:18:32;;;;;;;7.25;3.08;;;19.20;99.90;;;;;;6219674;23;20027;-80
2022/08/25 06:20:57;;;;;;;7.30;3.05;;;19.30;99.90;;;;;;6217643;23;20423;-80
2022/08/25 06:23:23;;;;;;;7.78;3.03;;;19.40;99.90;;;;;;6219203;23;20444;-80
2022/08/25 06:25:51;;;;;;;13.13;3.22;;;19.50;99.90;;;;;;6219332;23;20020;-79
2022/08/25 06:28:17;;;;;;;14.55;3.58;;;19.60;99.90;;;;;;6217921;23;20016;-81
2022/08/25 06:30:43;;;;;;;8.35;3.35;;;19.70;99.90;;;;;;6219016;23;20018;-80
2022/08/25 06:33:08;;;;;;;13.10;3.30;;;19.80;99.90;;;;;;6219015;23;20056;-80
2022/08/25 06:35:34;;;;;;;10.80;3.13;;;19.90;99.90;;;;;;6192546;23;20020;-80
2022/08/25 06:38:00;;;;;;;9.05;2.72;;;20.00;99.90;;;;;;6218655;23;20063;-80
2022/08/25 06:40:25;;;;;;;14.93;3.17;;;20.20;99.90;;;;;;6219293;23;20346;-80
2022/08/25 06:42:51;;;;;;;8.45;2.92;;;20.30;99.90;;;;;;6217848;23;20020;-80
2022/08/25 06:45:17;;;;;;;9.90;2.92;;;20.40;99.90;;;;;;6219348;23;20012;-79
2022/08/25 06:47:43;;;;;;;6.45;2.80;;;20.50;99.90;;;;;;6218843;23;20103;-80
2022/08/25 06:50:09;;;;;;;6.05;2.78;;;20.60;99.90;;;;;;6244664;23;20027;-81
2022/08/25 06:52:35;;;;;;;4.38;2.80;;;20.70;99.90;;;;;;6193679;23;20687;-79
2022/08/25 06:55:02;;;;;;;5.45;2.78;;;20.80;99.90;;;;;;6219377;23;20017;-80
2022/08/25 06:57:27;;;;;;;8.10;2.92;;;20.80;99.90;;;;;;6217984;23;20012;-79
2022/08/25 06:59:53;;;;;;;3.83;2.67;;;20.90;99.90;;;;;;6193892;23;20016;-80
2022/08/25 07:02:19;;;;;;;7.60;2.72;;;21.00;99.90;;;;;;6218996;23;20016;-79
2022/08/25 07:04:45;;;;;;;5.75;2.90;;;21.10;99.90;;;;;;6217137;23;20028;-79
2022/08/25 07:07:11;;;;;;;5.93;2.80;;;21.20;99.90;;;;;;6245838;23;20511;-79
2022/08/25 07:09:37;;;;;;;7.03;2.92;;;21.30;99.90;;;;;;6218987;23;20016;-79
2022/08/25 07:12:04;;;;;;;6.30;3.03;;;21.40;99.90;;;;;;6192591;23;20073;-81
2022/08/25 07:14:30;;;;;;;8.02;3.03;;;21.50;99.90;;;;;;6218827;23;20016;-79
2022/08/25 07:16:56;;;;;;;8.98;2.90;;;21.60;99.90;;;;;;6244971;23;20443;-80
2022/08/25 07:19:22;;;;;;;5.00;2.70;;;21.70;99.90;;;;;;6192809;23;20351;-79
2022/08/25 07:21:51;;;;;;;10.95;2.65;;;21.80;99.90;;;;;;6194217;23;20095;-79
2022/08/25 07:24:17;;;;;;;6.13;2.88;;;21.90;99.90;;;;;;6244343;23;20020;-80
2022/08/25 07:26:45;;;;;;;11.77;3.30;;;22.00;99.90;;;;;;6219139;23;20459;-80
2022/08/25 07:29:24;;;;;;;5.68;2.60;;;22.00;99.90;;;;;;6193137;23;20016;-80
2022/08/25 07:31:50;;;;;;;7.45;2.97;;;22.10;99.90;;;;;;6244866;23;20020;-80
2022/08/25 07:37:03;;;;;;;;;;;22.30;99.90;;;;;;6218476;23;20085;-80
2022/08/25 07:39:30;;;;;;;8.68;2.70;;;22.30;99.90;;;;;;6244877;23;19919;-80
2022/08/25 07:41:55;;;;;;;12.20;3.08;;;22.40;99.90;;;;;;6244007;23;20012;-80
2022/08/25 07:44:23;;;;;;;8.90;3.47;;;22.50;99.90;;;;;;6245841;23;20023;-80
2022/08/25 07:46:49;;;;;;;9.05;4.07;;;22.60;99.90;;;;;;6217600;23;20468;-80
2022/08/25 07:49:15;;;;;;;7.30;3.30;;;22.70;99.90;;;;;;6246885;23;20160;-80
2022/08/25 07:51:41;;;;;;;8.35;2.60;;;22.70;99.90;;;;;;6220653;23;20088;-79
2022/08/25 07:54:07;;;;;;;3.97;2.75;;;22.80;99.90;;;;;;6219119;23;20070;-80
2022/08/25 07:56:33;;;;;;;12.57;3.30;;;22.90;99.90;;;;;;6220981;23;20062;-80
2022/08/25 07:58:58;;;;;;;8.73;3.95;;;22.90;99.90;;;;;;6220640;23;20030;-80
2022/08/25 08:01:25;;;;;;;6.68;2.83;;;23.00;99.90;;;;;;6218988;23;20105;-80
2022/08/25 08:03:51;;;;;;;8.30;3.28;;;23.10;99.90;;;;;;6219942;23;20024;-80
2022/08/25 08:06:21;;;;;;;13.00;3.53;;;23.20;99.90;;;;;;6219225;23;20027;-80
2022/08/25 08:08:49;;;;;;;4.82;3.00;;;23.30;99.90;;;;;;6247521;23;20016;-79
2022/08/25 08:11:18;;;;;;;7.47;2.90;;;23.40;99.90;;;;;;6220413;23;20020;-79
2022/08/25 08:13:45;;;;;;;11.50;3.13;;;23.50;99.90;;;;;;6246963;23;20317;-79
2022/08/25 08:16:13;;;;;;;6.13;2.75;;;23.50;99.90;;;;;;6220596;23;20509;-80
2022/08/25 08:18:41;;;;;;;7.18;3.08;;;23.60;99.90;;;;;;6195135;23;20095;-79
2022/08/25 08:21:13;;;;;;;7.38;2.88;;;23.70;99.90;;;;;;6246870;23;20078;-80
2022/08/25 08:23:39;;;;;;;11.50;3.33;;;23.80;99.90;;;;;;6247466;22;20019;-79
2022/08/25 08:26:05;;;;;;;4.88;3.17;;;23.90;99.90;;;;;;6220673;23;20100;-79
2022/08/25 08:28:31;;;;;;;7.18;2.80;;;23.90;99.90;;;;;;6219870;23;20072;-80
2022/08/25 08:30:57;;;;;;;6.32;2.85;;;24.00;99.90;;;;;;6220035;23;20355;-80
2022/08/25 08:33:23;;;;;;;7.63;2.80;;;24.10;99.90;;;;;;6219632;23;20016;-79
2022/08/25 08:36:17;;;;;;;5.15;2.83;;;24.20;99.90;;;;;;6218988;23;20047;-79
2022/08/25 08:38:44;;;;;;;7.82;3.05;;;24.30;99.90;;;;;;6241937;23;20016;-79
2022/08/25 08:44:26;;;;;;;9.32;2.78;;;24.40;99.90;;;;;;6219687;23;20113;-79
2022/08/25 08:47:21;;;;;;;5.57;2.72;;;24.50;99.90;;;;;;6247103;23;20023;-79
2022/08/25 08:50:23;;;;;;;8.48;3.30;;;24.60;99.90;;;;;;6193228;23;20016;-78
2022/08/25 08:52:53;;;;;;;5.70;2.80;;;24.70;99.90;;;;;;6195008;23;20344;-79
2022/08/25 08:55:24;;;;;;;11.07;2.65;;;24.80;99.90;;;;;;6194930;23;20462;-79
2022/08/25 08:57:51;;;;;;;37.67;5.80;;;24.90;99.90;;;;;;6219477;23;20505;-79
2022/08/25 09:00:17;;;;;;;8.55;2.78;;;25.00;99.90;;;;;;6219581;23;20343;-78
2022/08/25 09:03:05;;;;;;;8.13;3.40;;;25.10;99.90;;;;;;6245573;23;20103;-80
2022/08/25 09:05:35;;;;;;;6.57;2.42;;;25.20;99.90;;;;;;6246517;23;20020;-79
2022/08/25 09:08:12;;;;;;;5.38;2.13;;;25.20;99.90;;;;;;6246924;23;20047;-79
2022/08/25 09:10:55;;;;;;;7.95;2.38;;;25.40;99.90;;;;;;6218876;23;20098;-79
2022/08/25 09:13:37;;;;;;;9.40;2.30;;;25.40;99.90;;;;;;6246934;23;20016;-79
2022/08/25 09:16:53;;;;;;;9.73;2.40;;;25.50;99.90;;;;;;6220245;23;20511;-79
2022/08/25 09:19:45;;;;;;;6.93;2.30;;;25.60;99.90;;;;;;6246316;23;20340;-80
2022/08/25 09:22:29;;;;;;;9.75;2.42;;;25.60;99.90;;;;;;6246923;23;20074;-80
2022/08/25 09:25:10;;;;;;;5.30;2.00;;;25.70;99.90;;;;;;6245753;23;20059;-79
2022/08/25 09:27:45;;;;;;;4.95;1.85;;;25.80;99.90;;;;;;6194255;23;20024;-78
2022/08/25 09:30:15;;;;;;;3.55;2.10;;;25.90;99.90;;;;;;6219854;23;20348;-80
2022/08/25 09:32:45;;;;;;;7.40;2.10;;;25.90;99.90;;;;;;6217756;23;20078;-79
2022/08/25 09:35:18;;;;;;;4.88;1.88;;;26.00;99.90;;;;;;6193954;23;20318;-77
2022/08/25 09:37:56;;;;;;;6.97;2.40;;;26.10;99.90;;;;;;6218092;23;20016;-76
2022/08/25 09:40:24;;;;;;;4.72;2.00;;;26.20;99.50;;;;;;6220085;23;20012;-78
2022/08/25 09:42:57;;;;;;;3.35;2.10;;;26.20;99.40;;;;;;6219292;23;20023;-79
2022/08/25 09:45:43;;;;;;;6.60;2.17;;;26.30;98.90;;;;;;6193345;23;20012;-79
2022/08/25 09:48:38;;;;;;;5.72;2.72;;;26.30;99.00;;;;;;6245844;23;20059;-78
2022/08/25 09:51:23;;;;;;;6.03;2.22;;;26.40;98.20;;;;;;6246395;23;20012;-79
2022/08/25 09:53:57;;;;;;;4.90;1.98;;;26.50;97.40;;;;;;6217663;23;20027;-79
2022/08/25 09:56:26;;;;;;;6.35;2.00;;;26.60;96.60;;;;;;6246205;23;20020;-79
2022/08/25 09:58:52;;;;;;;3.72;2.10;;;26.60;96.10;;;;;;6218443;23;20020;-79
2022/08/25 10:01:20;;;;;;;3.88;2.25;;;26.70;95.50;;;;;;6219178;23;20092;-79
2022/08/25 10:03:59;;;;;;;3.85;2.28;;;26.80;95.10;;;;;;6246190;23;20065;-78
2022/08/25 10:06:29;;;;;;;7.50;2.40;;;26.80;93.70;;;;;;6217086;23;20440;-79
2022/08/25 10:09:00;;;;;;;4.43;1.60;;;26.90;93.30;;;;;;6218868;23;20027;-79
2022/08/25 10:11:36;;;;;;;8.95;2.40;;;27.00;93.00;;;;;;6218960;23;20016;-79
2022/08/25 10:14:23;;;;;;;6.78;2.13;;;27.00;92.60;;;;;;6193247;23;20095;-78
2022/08/25 10:16:49;;;;;;;4.20;1.80;;;27.10;91.40;;;;;;6219226;23;20352;-78
2022/08/25 10:19:26;;;;;;;3.05;1.67;;;27.10;91.20;;;;;;6219268;23;20027;-78
2022/08/25 10:22:06;;;;;;;5.43;1.65;;;27.20;90.10;;;;;;6217730;23;20074;-79
2022/08/25 10:24:33;;;;;;;5.35;1.73;;;27.20;89.60;;;;;;6218325;23;20017;-78
2022/08/25 10:27:22;;;;;;;5.90;1.90;;;27.30;89.20;;;;;;6244740;23;20027;-79
2022/08/25 10:30:03;;;;;;;6.95;1.70;;;27.30;87.90;;;;;;6219020;23;20154;-80
2022/08/25 10:32:57;;;;;;;7.28;1.83;;;27.40;88.60;;;;;;6218749;23;20024;-79
2022/08/25 10:35:49;;;;;;;4.30;2.40;;;27.50;88.40;;;;;;6218164;23;20452;-79
2022/08/25 10:38:31;;;;;;;13.18;2.50;;;27.50;89.90;;;;;;6243292;23;20024;-78
2022/08/25 10:41:21;;;;;;;5.28;1.88;;;27.60;87.60;;;;;;6217314;23;20024;-79
2022/08/25 10:47:41;;;;;;;3.83;1.73;;;27.70;85.90;;;;;;6218762;23;20451;-79
2022/08/25 10:50:07;;;;;;;14.32;2.50;;;27.70;87.80;;;;;;6167489;23;20046;-78
2022/08/25 10:53:01;;;;;;;7.47;2.08;;;27.80;85.60;;;;;;6218472;23;20024;-80
2022/08/25 10:55:38;;;;;;;5.40;2.13;;;27.90;85.30;;;;;;6244385;23;20454;-79
2022/08/25 10:58:30;;;;;;;6.20;1.90;;;28.00;86.10;;;;;;6219113;23;20024;-80
2022/08/25 11:01:33;;;;;;;11.45;1.70;;;28.00;86.40;;;;;;6246544;23;20024;-79
2022/08/25 11:04:07;;;;;;;6.85;2.13;;;28.10;81.70;;;;;;6218043;23;20456;-79
2022/08/25 11:06:46;;;;;;;4.15;1.48;;;28.10;81.90;;;;;;6245951;23;20327;-79
2022/08/25 11:09:18;;;;;;;6.40;1.88;;;28.20;79.40;;;;;;6244012;23;20087;-78
2022/08/25 11:12:05;;;;;;;3.83;2.15;;;28.20;78.90;;;;;;6218221;23;20020;-79
2022/08/25 11:14:56;;;;;;;3.28;1.83;;;28.20;79.60;;;;;;6244194;23;20352;-81
2022/08/25 11:17:34;;;;;;;7.97;1.92;;;28.30;81.40;;;;;;6192710;23;20030;-79
2022/08/25 11:20:09;;;;;;;4.88;1.90;;;28.30;81.10;;;;;;6194341;23;20013;-80
2022/08/25 11:22:42;;;;;;;5.82;1.60;;;28.30;79.50;;;;;;6219242;23;20051;-79
2022/08/25 11:25:15;;;;;;;7.47;1.67;;;28.40;79.90;;;;;;6247042;23;20024;-79
2022/08/25 11:28:22;;;;;;;6.75;1.95;;;28.40;79.20;;;;;;6220365;23;20020;-79
2022/08/25 11:30:49;;;;;;;15.32;2.10;;;28.40;78.20;;;;;;6212860;23;20056;-79
2022/08/25 11:33:17;;;;;;;5.75;2.08;;;28.40;77.60;;;;;;6221120;23;20051;-79
2022/08/25 11:35:50;;;;;;;4.95;1.90;;;28.40;76.50;;;;;;6247362;23;20074;-79
2022/08/25 11:38:31;;;;;;;2.20;1.55;;;28.50;76.60;;;;;;6220176;23;20023;-79
2022/08/25 11:41:03;;;;;;;3.72;1.83;;;28.50;75.90;;;;;;6247098;23;20020;-79
2022/08/25 11:43:38;;;;;;;8.10;1.95;;;28.50;74.20;;;;;;6195985;23;20048;-79
2022/08/25 11:46:20;;;;;;;3.88;2.00;;;28.60;74.20;;;;;;6219747;23;20016;-79
2022/08/25 11:48:52;;;;;;;5.25;1.77;;;28.60;73.30;;;;;;6220977;23;20512;-79
2022/08/25 11:51:40;;;;;;;4.68;1.80;;;28.60;72.50;;;;;;6246343;23;20016;-79
2022/08/25 11:54:28;;;;;;;4.30;2.20;;;28.70;72.70;;;;;;6248155;23;20016;-79
2022/08/25 11:57:06;;;;;;;9.05;1.98;;;28.70;72.40;;;;;;6246490;23;20518;-79
2022/08/25 11:59:55;;;;;;;4.28;1.80;;;28.70;71.80;;;;;;6219890;23;20348;-79
2022/08/25 12:02:41;;;;;;;5.00;1.83;;;28.70;71.20;;;;;;6247322;23;20016;-78
2022/08/25 12:05:15;;;;;;;5.68;1.95;;;28.70;71.30;;;;;;6220458;23;20020;-79
2022/08/25 12:10:56;;;;;;;7.88;1.88;;;28.80;70.50;;;;;;6219818;23;20387;-79
2022/08/25 12:13:43;;;;;;;4.90;1.85;;;28.80;68.60;;;;;;6219774;23;20022;-79
2022/08/25 12:16:34;;;;;;;3.10;1.67;;;28.80;69.50;;;;;;6245484;23;20042;-80
2022/08/25 12:19:27;;;;;;;2.22;1.40;;;28.90;70.10;;;;;;6180406;23;20016;-80
2022/08/25 12:21:56;;;;;;;3.72;1.85;;;28.90;69.20;;;;;;6246720;23;20024;-80
2022/08/25 12:24:40;;;;;;;5.60;1.92;;;29.00;68.80;;;;;;6247291;23;20046;-79
2022/08/25 12:27:27;;;;;;;3.28;1.58;;;29.00;68.80;;;;;;6218459;23;20027;-77
2022/08/25 12:30:10;;;;;;;6.65;1.90;;;29.00;68.10;;;;;;6245207;23;20020;-79
2022/08/25 12:32:38;;;;;;;3.70;1.73;;;29.00;67.30;;;;;;6220509;23;20313;-80
2022/08/25 12:35:16;;;;;;;2.53;1.65;;;29.00;68.40;;;;;;6193618;23;20391;-80
2022/08/25 12:38:06;;;;;;;2.08;1.30;;;29.10;66.90;;;;;;6220392;23;20028;-79
2022/08/25 12:40:37;;;;;;;3.75;1.50;;;29.10;66.90;;;;;;6218627;23;20448;-79
2022/08/25 12:43:26;;;;;;;7.80;2.10;;;29.10;66.60;;;;;;6247199;23;20020;-78
2022/08/25 12:45:55;;;;;;;6.10;1.75;;;29.10;66.40;;;;;;6247635;23;20012;-78
2022/08/25 12:48:26;;;;;;;6.35;1.98;;;29.20;66.10;;;;;;6245687;23;20047;-79
2022/08/25 12:51:00;;;;;;;7.47;1.85;;;29.20;66.60;;;;;;6195348;23;20016;-78
2022/08/25 12:53:40;;;;;;;2.95;1.70;;;29.20;66.00;;;;;;6220128;23;20046;-79
2022/08/25 12:56:27;;;;;;;4.03;1.70;;;29.20;65.70;;;;;;6219116;23;20024;-79
2022/08/25 12:59:01;;;;;;;4.38;1.80;;;29.30;65.40;;;;;;6219711;23;20048;-79
2022/08/25 13:02:03;;;;;;;2.72;1.50;;;29.30;64.80;;;;;;6247584;23;20016;-79
2022/08/25 13:04:47;;;;;;;4.78;1.52;;;29.30;63.40;;;;;;6247050;23;20093;-78
2022/08/25 13:07:35;;;;;;;3.25;1.50;;;29.30;64.20;;;;;;6220171;23;20479;-78
2022/08/25 13:10:57;;;;;;;2.15;1.60;;;29.40;63.40;;;;;;6245592;23;20318;-79
2022/08/25 13:13:41;;;;;;;4.88;1.58;;;29.40;63.10;;;;;;6124407;23;20029;-78
2022/08/25 13:16:16;;;;;;;6.90;1.58;;;29.40;62.20;;;;;;6236192;23;20012;-78
2022/08/25 13:18:42;;;;;;;3.40;2.05;;;29.40;61.60;;;;;;6219927;23;20020;-79
2022/08/25 13:21:29;;;;;;;5.97;1.35;;;29.50;61.40;;;;;;6220066;23;20012;-78
2022/08/25 13:23:58;;;;;;;5.22;1.55;;;29.50;62.60;;;;;;6217880;23;20020;-77